sensor_id;sensor_type;location;lat;lon;timestamp;P1;durP1;ratioP1;P2;durP2;ratioP2
35606;SDS011;21729;58.392;15.656;2022-09-09T00:00:53;2.47;;;0.90;;
35606;SDS011;21729;58.392;15.656;2022-09-09T00:03:26;1.10;;;0.90;;
35606;SDS011;21729;58.392;15.656;2022-09-09T00:05:59;1.20;;;1.10;;
35606;SDS011;21729;58.392;15.656;2022-09-09T00:08:34;1.10;;;1.00;;
35606;SDS011;21729;58.392;15.656;2022-09-09T00:11:12;3.10;;;1.00;;
35606;SDS011;21729;58.392;15.656;2022-09-09T00:13:45;1.50;;;1.02;;
35606;SDS011;21729;58.392;15.656;2022-09-09T00:16:16;1.63;;;1.10;;
35606;SDS011;21729;58.392;15.656;2022-09-09T00:18:50;1.35;;;1.25;;
35606;SDS011;21729;58.392;15.656;2022-09-09T00:21:26;1.20;;;1.00;;
35606;SDS011;21729;58.392;15.656;2022-09-09T00:23:58;1.73;;;1.10;;
35606;SDS011;21729;58.392;15.656;2022-09-09T00:26:30;0.80;;;0.80;;
35606;SDS011;21729;58.392;15.656;2022-09-09T00:29:03;1.13;;;1.08;;
35606;SDS011;21729;58.392;15.656;2022-09-09T00:31:39;0.98;;;0.98;;
35606;SDS011;21729;58.392;15.656;2022-09-09T00:34:13;0.90;;;0.90;;
35606;SDS011;21729;58.392;15.656;2022-09-09T00:36:44;1.20;;;0.98;;
35606;SDS011;21729;58.392;15.656;2022-09-09T00:39:17;1.80;;;0.90;;
35606;SDS011;21729;58.392;15.656;2022-09-09T00:41:55;0.98;;;0.90;;
35606;SDS011;21729;58.392;15.656;2022-09-09T00:44:37;1.38;;;1.00;;
35606;SDS011;21729;58.392;15.656;2022-09-09T00:47:09;1.80;;;1.00;;
35606;SDS011;21729;58.392;15.656;2022-09-09T00:49:51;1.20;;;1.10;;
35606;SDS011;21729;58.392;15.656;2022-09-09T00:52:32;1.30;;;1.10;;
35606;SDS011;21729;58.392;15.656;2022-09-09T00:55:12;1.35;;;1.00;;
35606;SDS011;21729;58.392;15.656;2022-09-09T00:57:43;1.17;;;1.10;;
35606;SDS011;21729;58.392;15.656;2022-09-09T01:00:20;1.10;;;0.90;;
35606;SDS011;21729;58.392;15.656;2022-09-09T01:02:52;1.00;;;1.00;;
35606;SDS011;21729;58.392;15.656;2022-09-09T01:05:29;1.80;;;1.02;;
35606;SDS011;21729;58.392;15.656;2022-09-09T01:08:05;1.20;;;1.10;;
35606;SDS011;21729;58.392;15.656;2022-09-09T01:10:43;1.10;;;1.00;;
35606;SDS011;21729;58.392;15.656;2022-09-09T01:13:19;1.20;;;1.00;;
35606;SDS011;21729;58.392;15.656;2022-09-09T01:15:50;1.38;;;1.10;;
35606;SDS011;21729;58.392;15.656;2022-09-09T01:18:20;1.20;;;1.07;;
35606;SDS011;21729;58.392;15.656;2022-09-09T01:20:53;1.08;;;0.93;;
35606;SDS011;21729;58.392;15.656;2022-09-09T01:23:38;0.85;;;0.85;;
35606;SDS011;21729;58.392;15.656;2022-09-09T01:26:26;0.90;;;0.90;;
35606;SDS011;21729;58.392;15.656;2022-09-09T01:28:56;1.20;;;1.10;;
35606;SDS011;21729;58.392;15.656;2022-09-09T01:31:26;1.83;;;0.90;;
35606;SDS011;21729;58.392;15.656;2022-09-09T01:33:56;1.50;;;0.93;;
35606;SDS011;21729;58.392;15.656;2022-09-09T01:36:29;1.00;;;1.00;;
35606;SDS011;21729;58.392;15.656;2022-09-09T01:39:02;0.98;;;0.98;;
35606;SDS011;21729;58.392;15.656;2022-09-09T01:41:31;1.58;;;0.90;;
35606;SDS011;21729;58.392;15.656;2022-09-09T01:43:59;2.00;;;1.17;;
35606;SDS011;21729;58.392;15.656;2022-09-09T01:46:26;1.25;;;1.10;;
35606;SDS011;21729;58.392;15.656;2022-09-09T01:48:55;2.72;;;1.10;;
35606;SDS011;21729;58.392;15.656;2022-09-09T01:51:23;1.20;;;1.08;;
35606;SDS011;21729;58.392;15.656;2022-09-09T01:53:50;1.10;;;0.95;;
35606;SDS011;21729;58.392;15.656;2022-09-09T01:56:28;1.50;;;0.93;;
35606;SDS011;21729;58.392;15.656;2022-09-09T01:59:07;0.88;;;0.88;;
35606;SDS011;21729;58.392;15.656;2022-09-09T02:01:47;1.15;;;1.05;;
35606;SDS011;21729;58.392;15.656;2022-09-09T02:04:27;1.88;;;1.15;;
35606;SDS011;21729;58.392;15.656;2022-09-09T02:07:02;0.88;;;0.88;;
35606;SDS011;21729;58.392;15.656;2022-09-09T02:09:30;1.10;;;0.90;;
35606;SDS011;21729;58.392;15.656;2022-09-09T02:12:00;1.45;;;1.05;;
35606;SDS011;21729;58.392;15.656;2022-09-09T02:14:34;2.00;;;1.00;;
35606;SDS011;21729;58.392;15.656;2022-09-09T02:17:07;1.45;;;1.00;;
35606;SDS011;21729;58.392;15.656;2022-09-09T02:19:37;1.30;;;1.00;;
35606;SDS011;21729;58.392;15.656;2022-09-09T02:22:08;1.23;;;0.90;;
35606;SDS011;21729;58.392;15.656;2022-09-09T02:24:37;1.67;;;1.00;;
35606;SDS011;21729;58.392;15.656;2022-09-09T02:27:07;1.08;;;0.98;;
35606;SDS011;21729;58.392;15.656;2022-09-09T02:29:36;2.00;;;1.40;;
35606;SDS011;21729;58.392;15.656;2022-09-09T02:32:08;1.10;;;1.00;;
35606;SDS011;21729;58.392;15.656;2022-09-09T02:34:40;2.42;;;1.15;;
35606;SDS011;21729;58.392;15.656;2022-09-09T02:37:11;2.88;;;1.00;;
35606;SDS011;21729;58.392;15.656;2022-09-09T02:39:41;1.93;;;1.10;;
35606;SDS011;21729;58.392;15.656;2022-09-09T02:42:09;1.75;;;1.15;;
35606;SDS011;21729;58.392;15.656;2022-09-09T02:44:40;2.05;;;1.08;;
35606;SDS011;21729;58.392;15.656;2022-09-09T02:47:12;0.95;;;0.95;;
35606;SDS011;21729;58.392;15.656;2022-09-09T02:49:51;1.40;;;0.90;;
35606;SDS011;21729;58.392;15.656;2022-09-09T02:52:29;1.10;;;1.00;;
35606;SDS011;21729;58.392;15.656;2022-09-09T02:55:05;1.20;;;0.98;;
35606;SDS011;21729;58.392;15.656;2022-09-09T02:57:39;1.25;;;1.15;;
35606;SDS011;21729;58.392;15.656;2022-09-09T03:00:11;1.83;;;1.00;;
35606;SDS011;21729;58.392;15.656;2022-09-09T03:02:38;1.38;;;1.00;;
35606;SDS011;21729;58.392;15.656;2022-09-09T03:05:07;2.40;;;1.00;;
35606;SDS011;21729;58.392;15.656;2022-09-09T03:07:34;2.03;;;1.00;;
35606;SDS011;21729;58.392;15.656;2022-09-09T03:10:02;1.43;;;1.10;;
35606;SDS011;21729;58.392;15.656;2022-09-09T03:12:29;1.23;;;1.00;;
35606;SDS011;21729;58.392;15.656;2022-09-09T03:14:59;1.65;;;1.08;;
35606;SDS011;21729;58.392;15.656;2022-09-09T03:17:26;1.75;;;1.10;;
35606;SDS011;21729;58.392;15.656;2022-09-09T03:19:53;1.15;;;1.05;;
35606;SDS011;21729;58.392;15.656;2022-09-09T03:22:22;1.17;;;1.08;;
35606;SDS011;21729;58.392;15.656;2022-09-09T03:24:50;2.35;;;1.13;;
35606;SDS011;21729;58.392;15.656;2022-09-09T03:27:17;2.50;;;1.17;;
35606;SDS011;21729;58.392;15.656;2022-09-09T03:29:45;1.85;;;1.00;;
35606;SDS011;21729;58.392;15.656;2022-09-09T03:32:18;1.25;;;1.15;;
35606;SDS011;21729;58.392;15.656;2022-09-09T03:34:47;2.38;;;1.20;;
35606;SDS011;21729;58.392;15.656;2022-09-09T03:37:15;2.40;;;1.02;;
35606;SDS011;21729;58.392;15.656;2022-09-09T03:39:43;1.90;;;1.17;;
35606;SDS011;21729;58.392;15.656;2022-09-09T03:42:11;2.83;;;1.13;;
35606;SDS011;21729;58.392;15.656;2022-09-09T03:44:39;3.28;;;1.17;;
35606;SDS011;21729;58.392;15.656;2022-09-09T03:47:07;3.78;;;1.20;;
35606;SDS011;21729;58.392;15.656;2022-09-09T03:49:35;2.03;;;1.20;;
35606;SDS011;21729;58.392;15.656;2022-09-09T03:52:02;2.30;;;1.10;;
35606;SDS011;21729;58.392;15.656;2022-09-09T03:54:30;2.20;;;1.15;;
35606;SDS011;21729;58.392;15.656;2022-09-09T03:56:57;2.38;;;1.10;;
35606;SDS011;21729;58.392;15.656;2022-09-09T03:59:24;3.13;;;1.17;;
35606;SDS011;21729;58.392;15.656;2022-09-09T04:01:51;2.60;;;1.20;;
35606;SDS011;21729;58.392;15.656;2022-09-09T04:04:18;2.42;;;1.20;;
35606;SDS011;21729;58.392;15.656;2022-09-09T04:06:47;2.43;;;1.40;;
35606;SDS011;21729;58.392;15.656;2022-09-09T04:09:16;2.53;;;1.20;;
35606;SDS011;21729;58.392;15.656;2022-09-09T04:11:43;2.20;;;1.20;;
35606;SDS011;21729;58.392;15.656;2022-09-09T04:14:10;4.93;;;1.30;;
35606;SDS011;21729;58.392;15.656;2022-09-09T04:16:37;2.45;;;1.10;;
35606;SDS011;21729;58.392;15.656;2022-09-09T04:19:08;1.30;;;1.10;;
35606;SDS011;21729;58.392;15.656;2022-09-09T04:21:37;4.97;;;1.30;;
35606;SDS011;21729;58.392;15.656;2022-09-09T04:24:07;3.00;;;1.07;;
35606;SDS011;21729;58.392;15.656;2022-09-09T04:26:35;1.80;;;1.20;;
35606;SDS011;21729;58.392;15.656;2022-09-09T04:29:03;3.05;;;1.00;;
35606;SDS011;21729;58.392;15.656;2022-09-09T04:31:32;2.10;;;1.10;;
35606;SDS011;21729;58.392;15.656;2022-09-09T04:34:00;2.67;;;1.10;;
35606;SDS011;21729;58.392;15.656;2022-09-09T04:36:30;2.72;;;1.20;;
35606;SDS011;21729;58.392;15.656;2022-09-09T04:38:58;3.00;;;1.02;;
35606;SDS011;21729;58.392;15.656;2022-09-09T04:41:28;1.75;;;1.10;;
35606;SDS011;21729;58.392;15.656;2022-09-09T04:43:59;2.33;;;1.17;;
35606;SDS011;21729;58.392;15.656;2022-09-09T04:46:29;2.87;;;1.10;;
35606;SDS011;21729;58.392;15.656;2022-09-09T04:48:56;2.67;;;1.10;;
35606;SDS011;21729;58.392;15.656;2022-09-09T04:51:23;2.83;;;0.97;;
35606;SDS011;21729;58.392;15.656;2022-09-09T04:53:50;3.10;;;1.07;;
35606;SDS011;21729;58.392;15.656;2022-09-09T04:56:19;3.03;;;0.82;;
35606;SDS011;21729;58.392;15.656;2022-09-09T04:58:47;1.15;;;0.90;;
35606;SDS011;21729;58.392;15.656;2022-09-09T05:01:15;1.90;;;1.00;;
35606;SDS011;21729;58.392;15.656;2022-09-09T05:03:43;2.20;;;0.85;;
35606;SDS011;21729;58.392;15.656;2022-09-09T05:06:12;1.75;;;0.80;;
35606;SDS011;21729;58.392;15.656;2022-09-09T05:08:41;2.22;;;0.90;;
35606;SDS011;21729;58.392;15.656;2022-09-09T05:11:13;1.40;;;1.00;;
35606;SDS011;21729;58.392;15.656;2022-09-09T05:13:42;3.35;;;1.05;;
35606;SDS011;21729;58.392;15.656;2022-09-09T05:16:10;3.15;;;1.00;;
35606;SDS011;21729;58.392;15.656;2022-09-09T05:18:37;2.92;;;0.80;;
35606;SDS011;21729;58.392;15.656;2022-09-09T05:21:05;3.67;;;1.00;;
35606;SDS011;21729;58.392;15.656;2022-09-09T05:23:32;2.25;;;0.75;;
35606;SDS011;21729;58.392;15.656;2022-09-09T05:26:00;3.15;;;1.00;;
35606;SDS011;21729;58.392;15.656;2022-09-09T05:28:27;3.13;;;1.00;;
35606;SDS011;21729;58.392;15.656;2022-09-09T05:30:56;4.20;;;0.90;;
35606;SDS011;21729;58.392;15.656;2022-09-09T05:33:25;2.60;;;1.10;;
35606;SDS011;21729;58.392;15.656;2022-09-09T05:35:56;4.07;;;0.90;;
35606;SDS011;21729;58.392;15.656;2022-09-09T05:38:24;1.67;;;0.80;;
35606;SDS011;21729;58.392;15.656;2022-09-09T05:40:51;3.95;;;1.20;;
35606;SDS011;21729;58.392;15.656;2022-09-09T05:43:19;4.70;;;1.17;;
35606;SDS011;21729;58.392;15.656;2022-09-09T05:45:46;0.70;;;0.70;;
35606;SDS011;21729;58.392;15.656;2022-09-09T05:48:14;3.08;;;0.90;;
35606;SDS011;21729;58.392;15.656;2022-09-09T05:50:42;4.05;;;0.98;;
35606;SDS011;21729;58.392;15.656;2022-09-09T05:53:10;1.80;;;0.88;;
35606;SDS011;21729;58.392;15.656;2022-09-09T05:55:37;1.90;;;0.82;;
35606;SDS011;21729;58.392;15.656;2022-09-09T05:58:04;3.35;;;0.90;;
35606;SDS011;21729;58.392;15.656;2022-09-09T06:00:31;3.75;;;0.88;;
35606;SDS011;21729;58.392;15.656;2022-09-09T06:02:59;4.05;;;1.02;;
35606;SDS011;21729;58.392;15.656;2022-09-09T06:05:26;2.05;;;0.80;;
35606;SDS011;21729;58.392;15.656;2022-09-09T06:07:55;2.53;;;1.00;;
35606;SDS011;21729;58.392;15.656;2022-09-09T06:10:22;2.40;;;0.87;;
35606;SDS011;21729;58.392;15.656;2022-09-09T06:12:52;3.55;;;0.90;;
35606;SDS011;21729;58.392;15.656;2022-09-09T06:15:20;2.10;;;0.80;;
35606;SDS011;21729;58.392;15.656;2022-09-09T06:17:47;3.22;;;1.00;;
35606;SDS011;21729;58.392;15.656;2022-09-09T06:20:20;2.58;;;1.00;;
35606;SDS011;21729;58.392;15.656;2022-09-09T06:22:47;2.53;;;0.85;;
35606;SDS011;21729;58.392;15.656;2022-09-09T06:25:16;3.05;;;0.80;;
35606;SDS011;21729;58.392;15.656;2022-09-09T06:27:47;2.80;;;0.70;;
35606;SDS011;21729;58.392;15.656;2022-09-09T06:30:16;2.67;;;0.77;;
35606;SDS011;21729;58.392;15.656;2022-09-09T06:32:43;2.15;;;0.90;;
35606;SDS011;21729;58.392;15.656;2022-09-09T06:35:10;2.42;;;0.80;;
35606;SDS011;21729;58.392;15.656;2022-09-09T06:37:38;1.63;;;1.00;;
35606;SDS011;21729;58.392;15.656;2022-09-09T06:40:06;2.80;;;0.82;;
35606;SDS011;21729;58.392;15.656;2022-09-09T06:42:35;2.47;;;0.60;;
35606;SDS011;21729;58.392;15.656;2022-09-09T06:45:05;2.85;;;0.70;;
35606;SDS011;21729;58.392;15.656;2022-09-09T06:47:33;1.58;;;0.75;;
35606;SDS011;21729;58.392;15.656;2022-09-09T06:50:00;1.55;;;0.60;;
35606;SDS011;21729;58.392;15.656;2022-09-09T06:52:27;2.63;;;1.10;;
35606;SDS011;21729;58.392;15.656;2022-09-09T06:54:54;1.10;;;0.70;;
35606;SDS011;21729;58.392;15.656;2022-09-09T06:57:23;0.97;;;0.60;;
35606;SDS011;21729;58.392;15.656;2022-09-09T06:59:52;2.33;;;1.00;;
35606;SDS011;21729;58.392;15.656;2022-09-09T07:02:19;1.85;;;0.63;;
35606;SDS011;21729;58.392;15.656;2022-09-09T07:04:46;1.90;;;0.95;;
35606;SDS011;21729;58.392;15.656;2022-09-09T07:07:15;3.00;;;0.90;;
35606;SDS011;21729;58.392;15.656;2022-09-09T07:09:42;1.63;;;0.80;;
35606;SDS011;21729;58.392;15.656;2022-09-09T07:12:10;3.83;;;0.95;;
35606;SDS011;21729;58.392;15.656;2022-09-09T07:14:39;0.90;;;0.80;;
35606;SDS011;21729;58.392;15.656;2022-09-09T07:17:07;0.85;;;0.70;;
35606;SDS011;21729;58.392;15.656;2022-09-09T07:19:35;1.65;;;0.90;;
35606;SDS011;21729;58.392;15.656;2022-09-09T07:22:02;2.30;;;1.02;;
35606;SDS011;21729;58.392;15.656;2022-09-09T07:24:29;3.55;;;1.50;;
35606;SDS011;21729;58.392;15.656;2022-09-09T07:26:56;2.30;;;0.90;;
35606;SDS011;21729;58.392;15.656;2022-09-09T07:29:24;2.80;;;0.90;;
35606;SDS011;21729;58.392;15.656;2022-09-09T07:31:53;2.30;;;1.05;;
35606;SDS011;21729;58.392;15.656;2022-09-09T07:34:22;2.47;;;1.00;;
35606;SDS011;21729;58.392;15.656;2022-09-09T07:36:49;2.10;;;0.90;;
35606;SDS011;21729;58.392;15.656;2022-09-09T07:39:16;1.50;;;0.82;;
35606;SDS011;21729;58.392;15.656;2022-09-09T07:41:43;1.10;;;0.80;;
35606;SDS011;21729;58.392;15.656;2022-09-09T07:44:12;2.20;;;1.10;;
35606;SDS011;21729;58.392;15.656;2022-09-09T07:46:40;1.80;;;0.90;;
35606;SDS011;21729;58.392;15.656;2022-09-09T07:49:10;1.67;;;0.90;;
35606;SDS011;21729;58.392;15.656;2022-09-09T07:51:39;2.22;;;0.82;;
35606;SDS011;21729;58.392;15.656;2022-09-09T07:54:08;1.75;;;0.90;;
35606;SDS011;21729;58.392;15.656;2022-09-09T07:56:37;1.98;;;0.90;;
35606;SDS011;21729;58.392;15.656;2022-09-09T07:59:04;1.77;;;0.80;;
35606;SDS011;21729;58.392;15.656;2022-09-09T08:01:33;1.80;;;0.90;;
35606;SDS011;21729;58.392;15.656;2022-09-09T08:04:07;1.85;;;0.77;;
35606;SDS011;21729;58.392;15.656;2022-09-09T08:06:42;1.90;;;0.90;;
35606;SDS011;21729;58.392;15.656;2022-09-09T08:09:12;1.67;;;0.90;;
35606;SDS011;21729;58.392;15.656;2022-09-09T08:11:40;1.42;;;0.90;;
35606;SDS011;21729;58.392;15.656;2022-09-09T08:14:08;1.00;;;0.90;;
35606;SDS011;21729;58.392;15.656;2022-09-09T08:16:37;1.58;;;0.85;;
35606;SDS011;21729;58.392;15.656;2022-09-09T08:19:05;2.10;;;0.80;;
35606;SDS011;21729;58.392;15.656;2022-09-09T08:21:33;2.63;;;1.00;;
35606;SDS011;21729;58.392;15.656;2022-09-09T08:24:05;1.17;;;0.68;;
35606;SDS011;21729;58.392;15.656;2022-09-09T08:26:32;0.90;;;0.70;;
35606;SDS011;21729;58.392;15.656;2022-09-09T08:29:01;0.98;;;0.70;;
35606;SDS011;21729;58.392;15.656;2022-09-09T08:31:30;1.77;;;0.73;;
35606;SDS011;21729;58.392;15.656;2022-09-09T08:33:58;1.30;;;0.90;;
35606;SDS011;21729;58.392;15.656;2022-09-09T08:36:28;1.23;;;0.90;;
35606;SDS011;21729;58.392;15.656;2022-09-09T08:38:58;3.10;;;0.90;;
35606;SDS011;21729;58.392;15.656;2022-09-09T08:41:40;1.80;;;0.90;;
35606;SDS011;21729;58.392;15.656;2022-09-09T08:44:35;2.38;;;1.10;;
35606;SDS011;21729;58.392;15.656;2022-09-09T08:47:11;2.23;;;0.90;;
35606;SDS011;21729;58.392;15.656;2022-09-09T08:49:53;1.57;;;0.70;;
35606;SDS011;21729;58.392;15.656;2022-09-09T08:52:36;1.58;;;1.00;;
35606;SDS011;21729;58.392;15.656;2022-09-09T08:55:13;3.17;;;1.00;;
35606;SDS011;21729;58.392;15.656;2022-09-09T08:57:51;2.08;;;0.88;;
35606;SDS011;21729;58.392;15.656;2022-09-09T09:00:21;1.10;;;0.90;;
35606;SDS011;21729;58.392;15.656;2022-09-09T09:02:53;2.10;;;0.90;;
35606;SDS011;21729;58.392;15.656;2022-09-09T09:05:27;1.20;;;0.70;;
35606;SDS011;21729;58.392;15.656;2022-09-09T09:08:00;1.27;;;0.77;;
35606;SDS011;21729;58.392;15.656;2022-09-09T09:10:35;2.10;;;0.90;;
35606;SDS011;21729;58.392;15.656;2022-09-09T09:13:14;2.28;;;0.80;;
35606;SDS011;21729;58.392;15.656;2022-09-09T09:15:44;1.48;;;0.80;;
35606;SDS011;21729;58.392;15.656;2022-09-09T09:18:16;2.20;;;0.80;;
35606;SDS011;21729;58.392;15.656;2022-09-09T09:20:47;1.45;;;0.80;;
35606;SDS011;21729;58.392;15.656;2022-09-09T09:23:26;1.80;;;0.70;;
35606;SDS011;21729;58.392;15.656;2022-09-09T09:26:00;1.60;;;0.70;;
35606;SDS011;21729;58.392;15.656;2022-09-09T09:28:31;1.00;;;0.70;;
35606;SDS011;21729;58.392;15.656;2022-09-09T09:30:59;1.17;;;0.77;;
35606;SDS011;21729;58.392;15.656;2022-09-09T09:33:32;1.75;;;0.80;;
35606;SDS011;21729;58.392;15.656;2022-09-09T09:36:06;1.95;;;1.00;;
35606;SDS011;21729;58.392;15.656;2022-09-09T09:38:34;1.90;;;0.73;;
35606;SDS011;21729;58.392;15.656;2022-09-09T09:41:02;2.45;;;0.80;;
35606;SDS011;21729;58.392;15.656;2022-09-09T09:43:32;0.88;;;0.68;;
35606;SDS011;21729;58.392;15.656;2022-09-09T09:46:03;0.80;;;0.60;;
35606;SDS011;21729;58.392;15.656;2022-09-09T09:48:31;2.92;;;0.85;;
35606;SDS011;21729;58.392;15.656;2022-09-09T09:50:59;1.00;;;0.80;;
35606;SDS011;21729;58.392;15.656;2022-09-09T09:53:29;1.13;;;0.90;;
35606;SDS011;21729;58.392;15.656;2022-09-09T09:55:59;0.80;;;0.80;;
35606;SDS011;21729;58.392;15.656;2022-09-09T09:58:29;1.80;;;0.80;;
35606;SDS011;21729;58.392;15.656;2022-09-09T10:00:59;1.77;;;0.82;;
35606;SDS011;21729;58.392;15.656;2022-09-09T10:03:28;1.30;;;0.80;;
35606;SDS011;21729;58.392;15.656;2022-09-09T10:05:56;1.65;;;0.80;;
35606;SDS011;21729;58.392;15.656;2022-09-09T10:08:24;1.75;;;0.82;;
35606;SDS011;21729;58.392;15.656;2022-09-09T10:10:56;1.10;;;0.80;;
35606;SDS011;21729;58.392;15.656;2022-09-09T10:13:46;1.55;;;1.05;;
35606;SDS011;21729;58.392;15.656;2022-09-09T10:16:23;1.08;;;1.00;;
35606;SDS011;21729;58.392;15.656;2022-09-09T10:19:01;1.45;;;0.90;;
35606;SDS011;21729;58.392;15.656;2022-09-09T10:21:39;2.13;;;0.98;;
35606;SDS011;21729;58.392;15.656;2022-09-09T10:24:22;1.20;;;0.82;;
35606;SDS011;21729;58.392;15.656;2022-09-09T10:27:18;1.15;;;0.85;;
35606;SDS011;21729;58.392;15.656;2022-09-09T10:32:45;0.80;;;0.80;;
35606;SDS011;21729;58.392;15.656;2022-09-09T10:35:23;2.03;;;1.00;;
35606;SDS011;21729;58.392;15.656;2022-09-09T10:37:58;1.67;;;0.90;;
35606;SDS011;21729;58.392;15.656;2022-09-09T10:49:45;1.48;;;0.80;;
35606;SDS011;21729;58.392;15.656;2022-09-09T10:52:27;1.90;;;1.00;;
35606;SDS011;21729;58.392;15.656;2022-09-09T10:55:00;2.10;;;1.00;;
35606;SDS011;21729;58.392;15.656;2022-09-09T10:57:35;1.10;;;0.82;;
35606;SDS011;21729;58.392;15.656;2022-09-09T11:00:06;2.92;;;1.00;;
35606;SDS011;21729;58.392;15.656;2022-09-09T11:02:43;1.58;;;0.90;;
35606;SDS011;21729;58.392;15.656;2022-09-09T11:05:13;3.40;;;1.05;;
35606;SDS011;21729;58.392;15.656;2022-09-09T11:07:45;3.50;;;0.90;;
35606;SDS011;21729;58.392;15.656;2022-09-09T11:10:19;3.17;;;1.00;;
35606;SDS011;21729;58.392;15.656;2022-09-09T11:12:51;1.35;;;0.90;;
35606;SDS011;21729;58.392;15.656;2022-09-09T11:15:23;2.05;;;1.08;;
35606;SDS011;21729;58.392;15.656;2022-09-09T11:17:58;2.22;;;1.02;;
35606;SDS011;21729;58.392;15.656;2022-09-09T11:20:31;2.58;;;1.25;;
35606;SDS011;21729;58.392;15.656;2022-09-09T11:22:59;1.27;;;0.80;;
35606;SDS011;21729;58.392;15.656;2022-09-09T11:25:31;2.05;;;0.95;;
35606;SDS011;21729;58.392;15.656;2022-09-09T11:28:12;2.25;;;0.90;;
35606;SDS011;21729;58.392;15.656;2022-09-09T11:30:58;3.78;;;0.95;;
35606;SDS011;21729;58.392;15.656;2022-09-09T11:36:43;3.83;;;1.00;;
35606;SDS011;21729;58.392;15.656;2022-09-09T11:39:36;3.23;;;1.10;;
35606;SDS011;21729;58.392;15.656;2022-09-09T11:42:15;4.13;;;1.00;;
35606;SDS011;21729;58.392;15.656;2022-09-09T11:44:45;1.90;;;1.00;;
35606;SDS011;21729;58.392;15.656;2022-09-09T11:47:17;3.00;;;1.08;;
35606;SDS011;21729;58.392;15.656;2022-09-09T11:49:51;2.15;;;1.00;;
35606;SDS011;21729;58.392;15.656;2022-09-09T11:52:22;2.00;;;1.00;;
35606;SDS011;21729;58.392;15.656;2022-09-09T11:54:54;1.33;;;1.00;;
35606;SDS011;21729;58.392;15.656;2022-09-09T11:57:24;2.65;;;1.08;;
35606;SDS011;21729;58.392;15.656;2022-09-09T11:59:56;3.00;;;1.20;;
35606;SDS011;21729;58.392;15.656;2022-09-09T12:02:24;2.75;;;0.90;;
35606;SDS011;21729;58.392;15.656;2022-09-09T12:04:57;2.78;;;1.15;;
35606;SDS011;21729;58.392;15.656;2022-09-09T12:07:32;3.13;;;1.10;;
35606;SDS011;21729;58.392;15.656;2022-09-09T12:10:04;2.75;;;1.00;;
35606;SDS011;21729;58.392;15.656;2022-09-09T12:12:45;4.17;;;1.20;;
35606;SDS011;21729;58.392;15.656;2022-09-09T12:15:23;3.00;;;1.10;;
35606;SDS011;21729;58.392;15.656;2022-09-09T12:17:54;4.03;;;1.08;;
35606;SDS011;21729;58.392;15.656;2022-09-09T12:20:26;2.35;;;1.33;;
35606;SDS011;21729;58.392;15.656;2022-09-09T12:23:06;2.83;;;1.20;;
35606;SDS011;21729;58.392;15.656;2022-09-09T12:26:01;2.63;;;1.15;;
35606;SDS011;21729;58.392;15.656;2022-09-09T12:28:42;3.77;;;1.13;;
35606;SDS011;21729;58.392;15.656;2022-09-09T12:31:17;3.10;;;1.30;;
35606;SDS011;21729;58.392;15.656;2022-09-09T12:33:49;2.40;;;1.20;;
35606;SDS011;21729;58.392;15.656;2022-09-09T12:36:19;1.40;;;1.23;;
35606;SDS011;21729;58.392;15.656;2022-09-09T12:38:50;2.35;;;1.20;;
35606;SDS011;21729;58.392;15.656;2022-09-09T12:41:19;1.63;;;1.20;;
35606;SDS011;21729;58.392;15.656;2022-09-09T12:43:47;2.13;;;1.10;;
35606;SDS011;21729;58.392;15.656;2022-09-09T12:46:18;2.72;;;1.27;;
35606;SDS011;21729;58.392;15.656;2022-09-09T12:48:51;5.07;;;1.23;;
35606;SDS011;21729;58.392;15.656;2022-09-09T12:51:23;1.65;;;1.15;;
35606;SDS011;21729;58.392;15.656;2022-09-09T12:53:54;2.63;;;1.20;;
35606;SDS011;21729;58.392;15.656;2022-09-09T12:56:22;2.47;;;1.20;;
35606;SDS011;21729;58.392;15.656;2022-09-09T12:58:53;4.40;;;1.25;;
35606;SDS011;21729;58.392;15.656;2022-09-09T13:01:23;5.28;;;1.23;;
35606;SDS011;21729;58.392;15.656;2022-09-09T13:03:51;3.17;;;1.23;;
35606;SDS011;21729;58.392;15.656;2022-09-09T13:06:20;3.25;;;1.30;;
35606;SDS011;21729;58.392;15.656;2022-09-09T13:08:50;2.20;;;1.00;;
35606;SDS011;21729;58.392;15.656;2022-09-09T13:11:18;4.40;;;1.30;;
35606;SDS011;21729;58.392;15.656;2022-09-09T13:13:50;2.90;;;1.10;;
35606;SDS011;21729;58.392;15.656;2022-09-09T13:16:19;1.70;;;1.10;;
35606;SDS011;21729;58.392;15.656;2022-09-09T13:18:49;3.30;;;1.30;;
35606;SDS011;21729;58.392;15.656;2022-09-09T13:21:18;2.65;;;1.25;;
35606;SDS011;21729;58.392;15.656;2022-09-09T13:23:58;2.00;;;1.15;;
35606;SDS011;21729;58.392;15.656;2022-09-09T13:26:28;3.40;;;1.20;;
35606;SDS011;21729;58.392;15.656;2022-09-09T13:29:07;2.63;;;1.23;;
35606;SDS011;21729;58.392;15.656;2022-09-09T13:31:42;2.72;;;1.40;;
35606;SDS011;21729;58.392;15.656;2022-09-09T13:34:11;2.00;;;1.13;;
35606;SDS011;21729;58.392;15.656;2022-09-09T13:36:39;1.93;;;1.20;;
35606;SDS011;21729;58.392;15.656;2022-09-09T13:39:14;2.42;;;1.13;;
35606;SDS011;21729;58.392;15.656;2022-09-09T13:41:44;2.83;;;1.13;;
35606;SDS011;21729;58.392;15.656;2022-09-09T13:44:15;3.90;;;1.30;;
35606;SDS011;21729;58.392;15.656;2022-09-09T13:46:58;1.67;;;1.23;;
35606;SDS011;21729;58.392;15.656;2022-09-09T13:49:27;1.92;;;1.10;;
35606;SDS011;21729;58.392;15.656;2022-09-09T13:52:03;2.28;;;1.20;;
35606;SDS011;21729;58.392;15.656;2022-09-09T13:54:35;2.33;;;1.20;;
35606;SDS011;21729;58.392;15.656;2022-09-09T13:57:03;3.17;;;1.25;;
35606;SDS011;21729;58.392;15.656;2022-09-09T13:59:30;2.42;;;1.10;;
35606;SDS011;21729;58.392;15.656;2022-09-09T14:01:57;2.67;;;1.30;;
35606;SDS011;21729;58.392;15.656;2022-09-09T14:04:26;2.13;;;1.10;;
35606;SDS011;21729;58.392;15.656;2022-09-09T14:06:54;1.67;;;1.10;;
35606;SDS011;21729;58.392;15.656;2022-09-09T14:09:22;2.65;;;1.17;;
35606;SDS011;21729;58.392;15.656;2022-09-09T14:11:50;3.13;;;1.27;;
35606;SDS011;21729;58.392;15.656;2022-09-09T14:14:17;2.67;;;1.00;;
35606;SDS011;21729;58.392;15.656;2022-09-09T14:16:45;2.15;;;1.20;;
35606;SDS011;21729;58.392;15.656;2022-09-09T14:19:12;2.40;;;1.20;;
35606;SDS011;21729;58.392;15.656;2022-09-09T14:21:39;2.00;;;1.10;;
35606;SDS011;21729;58.392;15.656;2022-09-09T14:24:06;2.45;;;1.10;;
35606;SDS011;21729;58.392;15.656;2022-09-09T14:26:33;1.75;;;1.30;;
35606;SDS011;21729;58.392;15.656;2022-09-09T14:29:02;3.20;;;1.10;;
35606;SDS011;21729;58.392;15.656;2022-09-09T14:31:29;2.10;;;1.20;;
35606;SDS011;21729;58.392;15.656;2022-09-09T14:33:56;2.10;;;1.13;;
35606;SDS011;21729;58.392;15.656;2022-09-09T14:36:24;1.92;;;1.10;;
35606;SDS011;21729;58.392;15.656;2022-09-09T14:38:51;2.38;;;1.50;;
35606;SDS011;21729;58.392;15.656;2022-09-09T14:41:19;2.63;;;1.27;;
35606;SDS011;21729;58.392;15.656;2022-09-09T14:43:48;2.15;;;1.30;;
35606;SDS011;21729;58.392;15.656;2022-09-09T14:46:18;1.90;;;1.33;;
35606;SDS011;21729;58.392;15.656;2022-09-09T14:48:46;2.25;;;1.40;;
35606;SDS011;21729;58.392;15.656;2022-09-09T14:51:15;2.83;;;1.20;;
35606;SDS011;21729;58.392;15.656;2022-09-09T14:53:44;2.17;;;1.10;;
35606;SDS011;21729;58.392;15.656;2022-09-09T14:56:14;5.57;;;1.40;;
35606;SDS011;21729;58.392;15.656;2022-09-09T14:58:42;1.58;;;1.15;;
35606;SDS011;21729;58.392;15.656;2022-09-09T15:01:10;4.53;;;1.38;;
35606;SDS011;21729;58.392;15.656;2022-09-09T15:03:41;3.13;;;1.27;;
35606;SDS011;21729;58.392;15.656;2022-09-09T15:06:10;3.00;;;1.35;;
35606;SDS011;21729;58.392;15.656;2022-09-09T15:08:39;1.80;;;1.20;;
35606;SDS011;21729;58.392;15.656;2022-09-09T15:11:08;3.28;;;1.30;;